CheckWX is a tool to help pilots better visualize weather data.  It is not intended as a substitute for an official pre-flight weather briefing.

14:50:37 UTC

EDDH METAR
Hamburg Airport
Hamburg, Germany
Current

31 mins ago

EDDH 231420Z 29011KT 250V310 9999 FEW020 BKN046 11/04 Q1028 NOSIG
Observed
Mar-23 @ 14:20 UTC
Wind
  • 290° at 11 KTS
Visibility
10,000+ meters
Flight Rules
VFR
Cloud Levels
  • Few at 2,000' AGL
  • Broken at 4,600' AGL
Temperature
11°C / 52°F
Dewpoint
C / 39°F
Humidity
62%
Altimeter
30.35" Hg
Pressure
1027.92 hPa
Previous

1 hour ago

EDDH 231350Z 30010KT 9999 FEW018 BKN031 11/05 Q1028 NOSIG
Observed
Mar-23 @ 13:50 UTC
Wind
  • 300° at 10 KTS
Visibility
10,000+ meters
Flight Rules
VFR
Cloud Levels
  • Few at 1,800' AGL
  • Broken at 3,100' AGL
Temperature
11°C / 52°F
Dewpoint
C / 41°F
Humidity
67%
Altimeter
30.35" Hg
Pressure
1027.92 hPa
Previous

2 hours ago

EDDH 231320Z 29009KT 250V320 8000 FEW014 BKN029 10/06 Q1028 NOSIG
Observed
Mar-23 @ 13:20 UTC
Wind
  • 290° at 9 KTS
Visibility
7,998 meters
Flight Rules
MVFR
Cloud Levels
  • Few at 1,400' AGL
  • Broken at 2,900' AGL
Temperature
10°C / 50°F
Dewpoint
C / 43°F
Humidity
76%
Altimeter
30.35" Hg
Pressure
1027.92 hPa